Time;durP1;ratioP1;P1;durP2;ratioP2;P2;SDS_P1;SDS_P2;PMS_P1;PMS_P2;Temp;Humidity;BMP_temperature;BMP_pressure;BME280_temperature;BME280_humidity;BME280_pressure;Samples;Min_cycle;Max_cycle;Signal;HPM_P1;HPM_P2
2022/06/08 00:02:06;;;;;;;3.40;3.30;;;18.10;1.00;;;;;;6271490;28;20225;-55
2022/06/08 00:05:10;;;;;;;3.33;3.33;;;18.10;1.00;;;;;;6273037;28;20591;-54
2022/06/08 00:08:13;;;;;;;3.47;3.37;;;18.10;1.00;;;;;;6281641;28;20245;-57
2022/06/08 00:11:18;;;;;;;4.00;3.80;;;18.10;1.00;;;;;;6269223;28;20561;-55
2022/06/08 00:14:21;;;;;;;3.70;3.50;;;18.10;1.00;;;;;;6258961;28;20229;-57
2022/06/08 00:17:24;;;;;;;2.87;2.87;;;18.10;1.00;;;;;;6251197;28;20230;-57
2022/06/08 00:20:27;;;;;;;3.23;3.23;;;18.00;1.00;;;;;;6257933;28;20244;-57
2022/06/08 00:23:30;;;;;;;2.90;2.90;;;18.00;1.00;;;;;;6257239;28;20236;-56
2022/06/08 00:26:36;;;;;;;3.60;3.47;;;18.00;1.00;;;;;;6252758;28;20857;-56
2022/06/08 00:29:39;;;;;;;3.17;3.07;;;18.00;1.00;;;;;;6234235;28;20243;-56
2022/06/08 00:32:42;;;;;;;2.90;2.90;;;18.00;1.00;;;;;;6238432;28;20279;-57
2022/06/08 00:35:45;;;;;;;3.67;3.47;;;18.10;1.00;;;;;;6257621;28;20392;-56
2022/06/08 00:38:48;;;;;;;3.57;3.33;;;18.00;1.00;;;;;;6245111;28;20365;-58
2022/06/08 00:41:55;;;;;;;3.57;3.47;;;18.10;1.00;;;;;;6257999;28;20725;-56
2022/06/08 00:45:01;;;;;;;3.40;3.30;;;18.10;1.00;;;;;;6256064;28;20237;-55
2022/06/08 00:48:07;;;;;;;3.80;3.60;;;18.10;1.00;;;;;;6231762;28;20284;-56
2022/06/08 00:51:10;;;;;;;3.87;3.60;;;18.10;1.00;;;;;;6234411;28;20230;-56
2022/06/08 00:54:20;;;;;;;4.57;4.27;;;18.10;1.00;;;;;;6232075;28;20238;-56
2022/06/08 00:57:29;;;;;;;3.80;3.70;;;18.10;1.00;;;;;;6238118;28;20487;-56
2022/06/08 01:00:37;;;;;;;4.03;3.93;;;18.00;1.00;;;;;;6245685;28;20269;-56
2022/06/08 01:03:40;;;;;;;4.13;4.03;;;18.00;1.00;;;;;;6246167;28;20249;-56
2022/06/08 01:06:45;;;;;;;4.10;4.00;;;17.90;1.00;;;;;;6255943;28;20317;-56
2022/06/08 01:09:50;;;;;;;4.20;4.10;;;17.90;1.00;;;;;;6257758;28;20468;-56
2022/06/08 01:12:56;;;;;;;4.20;4.00;;;17.80;1.00;;;;;;6254345;28;20237;-57
2022/06/08 01:16:02;;;;;;;4.33;4.13;;;17.80;1.00;;;;;;6284379;28;20314;-55
2022/06/08 01:19:07;;;;;;;5.03;4.63;;;17.70;1.00;;;;;;6273810;28;20272;-56
2022/06/08 01:22:15;;;;;;;4.77;4.57;;;17.70;1.00;;;;;;6255202;28;20234;-57
2022/06/08 01:25:18;;;;;;;5.20;4.73;;;17.70;1.00;;;;;;6257819;28;20334;-55
2022/06/08 01:28:28;;;;;;;4.50;4.30;;;17.50;1.00;;;;;;6275201;28;20592;-55
2022/06/08 01:31:39;;;;;;;4.27;4.07;;;17.50;1.00;;;;;;6282865;28;20308;-56
2022/06/08 01:34:52;;;;;;;4.70;4.50;;;17.50;1.00;;;;;;6245419;28;20938;-56
2022/06/08 01:38:06;;;;;;;4.37;4.27;;;17.40;1.00;;;;;;6254884;28;20234;-58
2022/06/08 01:41:32;;;;;;;4.73;4.37;;;17.40;1.00;;;;;;6254359;28;20309;-58
2022/06/08 01:48:32;;;;;;;4.60;4.40;;;17.20;1.00;;;;;;6232981;28;20373;-57
2022/06/08 01:51:50;;;;;;;5.07;4.87;;;17.10;1.00;;;;;;6257415;28;20683;-56
2022/06/08 01:55:10;;;;;;;5.00;4.80;;;17.00;1.00;;;;;;6256791;28;20246;-57
2022/06/08 01:58:19;;;;;;;5.47;5.07;;;16.90;1.00;;;;;;6264700;28;20238;-55
2022/06/08 02:01:27;;;;;;;5.53;5.33;;;16.90;1.00;;;;;;6257932;28;20347;-57
2022/06/08 02:04:37;;;;;;;5.43;5.13;;;16.90;1.00;;;;;;6274932;28;20729;-57
2022/06/08 02:07:45;;;;;;;5.57;5.17;;;16.80;1.00;;;;;;6269969;28;20298;-56
2022/06/08 02:10:55;;;;;;;5.10;4.90;;;16.70;1.00;;;;;;6281732;28;20284;-56
2022/06/08 02:14:04;;;;;;;5.80;5.40;;;16.70;1.00;;;;;;6281671;28;20247;-57
2022/06/08 02:17:16;;;;;;;5.40;5.00;;;16.60;1.00;;;;;;6272174;28;20581;-56
2022/06/08 02:20:23;;;;;;;5.17;4.97;;;16.60;1.00;;;;;;6278445;28;20239;-56
2022/06/08 02:23:30;;;;;;;5.37;4.97;;;16.50;1.00;;;;;;6280093;28;20588;-56
2022/06/08 02:26:39;;;;;;;4.97;4.67;;;16.50;1.00;;;;;;6234710;28;20330;-57
2022/06/08 02:29:48;;;;;;;5.33;5.03;;;16.50;1.00;;;;;;6231728;28;20470;-56
2022/06/08 02:36:33;;;;;;;6.77;6.27;;;16.40;1.00;;;;;;6148160;28;20404;-57
2022/06/08 02:39:41;;;;;;;6.60;6.00;;;16.40;1.00;;;;;;6254455;28;20265;-57
2022/06/08 02:42:49;;;;;;;6.90;6.30;;;16.50;1.00;;;;;;6247705;28;20301;-56
2022/06/08 02:46:00;;;;;;;5.77;5.47;;;16.50;1.00;;;;;;6261437;28;20324;-57
2022/06/08 02:49:07;;;;;;;5.53;5.33;;;16.60;1.00;;;;;;6249349;28;20261;-56
2022/06/08 02:52:19;;;;;;;5.90;5.60;;;16.60;1.00;;;;;;6249879;28;20238;-56
2022/06/08 02:55:30;;;;;;;5.50;5.10;;;16.70;1.00;;;;;;6236346;28;20572;-56
2022/06/08 02:58:40;;;;;;;5.03;4.73;;;16.80;1.00;;;;;;6235232;28;20239;-58
2022/06/08 03:01:47;;;;;;;5.33;5.00;;;16.80;1.00;;;;;;6236462;28;20553;-56
2022/06/08 03:04:55;;;;;;;6.50;6.03;;;16.80;1.00;;;;;;6258135;28;20679;-56
2022/06/08 03:08:01;;;;;;;5.80;5.40;;;16.80;1.00;;;;;;6257918;28;20385;-56
2022/06/08 03:11:07;;;;;;;5.17;4.87;;;16.80;1.00;;;;;;6259358;28;20719;-57
2022/06/08 03:14:14;;;;;;;4.73;4.53;;;16.90;1.00;;;;;;6260083;28;20238;-57
2022/06/08 03:17:18;;;;;;;5.37;5.07;;;16.90;1.00;;;;;;6254298;28;20321;-57
2022/06/08 03:20:23;;;;;;;5.13;5.00;;;16.90;1.00;;;;;;6260009;28;20265;-57
2022/06/08 03:23:26;;;;;;;4.70;4.40;;;16.80;1.00;;;;;;6259175;28;20297;-56
2022/06/08 03:26:37;;;;;;;4.90;4.57;;;16.80;1.00;;;;;;6251956;28;20715;-55
2022/06/08 03:29:41;;;;;;;4.57;4.47;;;16.90;1.00;;;;;;6235050;28;20239;-56
2022/06/08 03:32:44;;;;;;;4.37;4.23;;;16.90;1.00;;;;;;6227641;28;20240;-57
2022/06/08 03:35:47;;;;;;;5.43;5.10;;;16.90;1.00;;;;;;6256219;28;20368;-57
2022/06/08 03:38:50;;;;;;;5.57;5.27;;;16.90;1.00;;;;;;6250733;28;20259;-56
2022/06/08 03:41:53;;;;;;;5.87;5.47;;;16.90;1.00;;;;;;6250229;28;20226;-56
2022/06/08 03:44:57;;;;;;;4.83;4.53;;;17.00;1.00;;;;;;6259103;28;20309;-57
2022/06/08 03:48:00;;;;;;;4.67;4.47;;;17.00;1.00;;;;;;6252328;28;20329;-56
2022/06/08 03:51:04;;;;;;;4.77;4.40;;;17.00;1.00;;;;;;6251127;28;20371;-57
2022/06/08 03:54:11;;;;;;;5.07;4.70;;;17.10;1.00;;;;;;6264714;28;20452;-56
2022/06/08 03:57:14;;;;;;;3.73;3.63;;;17.10;1.00;;;;;;6253067;28;20737;-55
2022/06/08 04:00:21;;;;;;;4.33;4.20;;;17.20;1.00;;;;;;6258433;28;20245;-58
2022/06/08 04:03:25;;;;;;;4.90;4.60;;;17.30;1.00;;;;;;6266734;28;20357;-57
2022/06/08 04:06:28;;;;;;;5.43;4.40;;;17.40;1.00;;;;;;6267729;28;20745;-55
2022/06/08 04:09:31;;;;;;;4.47;4.30;;;17.50;1.00;;;;;;6281462;28;20371;-56
2022/06/08 04:12:34;;;;;;;4.00;3.80;;;17.60;1.00;;;;;;6282094;28;20230;-57
2022/06/08 04:15:44;;;;;;;3.80;3.70;;;17.70;1.00;;;;;;6278213;28;20326;-55
2022/06/08 04:18:48;;;;;;;4.40;4.00;;;17.80;1.00;;;;;;6280841;28;20628;-56
2022/06/08 04:21:51;;;;;;;5.07;4.30;;;17.90;1.00;;;;;;6279047;28;20375;-57
2022/06/08 04:24:53;;;;;;;5.20;4.80;;;18.00;1.00;;;;;;6286665;28;20337;-57
2022/06/08 04:27:56;;;;;;;4.60;4.33;;;18.00;1.00;;;;;;6282000;28;20775;-56
2022/06/08 04:31:01;;;;;;;5.53;4.40;;;18.00;1.00;;;;;;6267082;28;20335;-55
2022/06/08 04:34:07;;;;;;;5.30;5.00;;;18.00;1.00;;;;;;6288633;28;20533;-56
2022/06/08 04:37:11;;;;;;;4.43;4.33;;;17.90;1.00;;;;;;6272987;28;20268;-55
2022/06/08 04:40:15;;;;;;;4.80;4.50;;;17.90;1.00;;;;;;6279888;28;20241;-56
2022/06/08 04:43:19;;;;;;;4.60;4.40;;;17.80;1.00;;;;;;6285214;28;20222;-56
2022/06/08 04:46:23;;;;;;;4.80;4.60;;;17.80;1.00;;;;;;6283252;28;20316;-55
2022/06/08 04:49:27;;;;;;;5.33;4.90;;;18.00;1.00;;;;;;6276519;28;20237;-56
2022/06/08 04:52:30;;;;;;;4.87;4.57;;;18.20;1.00;;;;;;6280276;28;20239;-57
2022/06/08 04:55:33;;;;;;;4.83;4.50;;;18.50;1.00;;;;;;6252788;28;20236;-55
2022/06/08 04:58:36;;;;;;;4.80;4.60;;;18.60;1.00;;;;;;6256643;28;20699;-56
2022/06/08 05:01:41;;;;;;;5.43;4.90;;;18.70;1.00;;;;;;6282411;28;20334;-57
2022/06/08 05:04:43;;;;;;;4.97;4.57;;;18.50;1.00;;;;;;6280622;28;20237;-56
2022/06/08 05:07:47;;;;;;;6.47;4.50;;;18.60;1.00;;;;;;6279650;28;20484;-55
2022/06/08 05:10:50;;;;;;;4.47;4.17;;;18.70;1.00;;;;;;6276522;28;20690;-56
2022/06/08 05:13:53;;;;;;;4.60;4.30;;;18.70;1.00;;;;;;6281034;28;20553;-56
2022/06/08 05:16:58;;;;;;;4.03;3.63;;;19.00;1.00;;;;;;6272501;28;20323;-56
2022/06/08 05:20:01;;;;;;;6.80;4.47;;;19.20;1.00;;;;;;6286714;28;20261;-56
2022/06/08 05:23:07;;;;;;;3.90;3.50;;;19.60;1.00;;;;;;6279079;28;20325;-56
2022/06/08 05:26:12;;;;;;;3.80;3.70;;;19.70;1.00;;;;;;6280025;28;20256;-56
2022/06/08 05:29:15;;;;;;;6.40;3.60;;;19.60;1.00;;;;;;6288698;28;20245;-57
2022/06/08 05:32:20;;;;;;;3.40;3.30;;;19.50;1.00;;;;;;6281148;28;20719;-56
2022/06/08 05:35:24;;;;;;;3.97;3.53;;;19.50;1.00;;;;;;6270680;28;20237;-57
2022/06/08 05:38:27;;;;;;;3.97;3.67;;;19.50;1.00;;;;;;6274303;28;20257;-56
2022/06/08 05:41:30;;;;;;;4.10;3.80;;;19.60;1.00;;;;;;6283678;28;20242;-56
2022/06/08 05:44:33;;;;;;;4.63;3.53;;;19.70;1.00;;;;;;6274927;28;20519;-55
2022/06/08 05:47:37;;;;;;;3.60;3.40;;;19.80;1.00;;;;;;6283309;28;20289;-57
2022/06/08 05:50:42;;;;;;;4.00;3.57;;;19.70;1.00;;;;;;6280257;28;20272;-57
2022/06/08 05:53:45;;;;;;;3.70;3.60;;;19.90;1.00;;;;;;6272395;28;20338;-56
2022/06/08 05:56:49;;;;;;;3.97;3.43;;;20.00;1.00;;;;;;6279341;28;20241;-56
2022/06/08 05:59:51;;;;;;;3.00;2.90;;;20.10;1.00;;;;;;6292498;28;20225;-55
2022/06/08 06:02:56;;;;;;;6.77;3.90;;;20.30;1.00;;;;;;6279060;28;20326;-56
2022/06/08 06:05:59;;;;;;;5.60;3.77;;;20.40;1.00;;;;;;6276587;28;20233;-55
2022/06/08 06:09:02;;;;;;;3.50;3.40;;;20.30;1.00;;;;;;6277581;28;20882;-56
2022/06/08 06:12:06;;;;;;;3.93;3.63;;;20.40;1.00;;;;;;6281958;28;20369;-57
2022/06/08 06:15:11;;;;;;;3.77;3.53;;;20.60;1.00;;;;;;6283657;28;20289;-56
2022/06/08 06:18:16;;;;;;;3.50;3.30;;;20.90;1.00;;;;;;6287108;28;20384;-56
2022/06/08 06:21:25;;;;;;;3.50;3.30;;;21.50;1.00;;;;;;6282517;28;20234;-55
2022/06/08 06:24:28;;;;;;;3.77;3.57;;;21.90;1.00;;;;;;6279234;28;20229;-56
2022/06/08 06:27:31;;;;;;;4.73;3.13;;;22.30;1.00;;;;;;6280667;28;20309;-56
2022/06/08 06:30:34;;;;;;;3.67;3.47;;;22.70;1.00;;;;;;6274720;28;20228;-55
2022/06/08 06:33:38;;;;;;;3.93;3.30;;;22.90;1.00;;;;;;6276847;28;20230;-55
2022/06/08 06:36:41;;;;;;;3.03;2.90;;;22.90;1.00;;;;;;6278673;28;20622;-57
2022/06/08 06:39:44;;;;;;;3.20;3.00;;;23.20;1.00;;;;;;6235007;28;20483;-55
2022/06/08 06:42:48;;;;;;;3.43;3.20;;;23.30;1.00;;;;;;6267700;28;20320;-55
2022/06/08 06:45:51;;;;;;;3.03;2.73;;;23.50;1.00;;;;;;6284843;28;20491;-53
2022/06/08 06:48:55;;;;;;;4.13;3.83;;;23.60;1.00;;;;;;6274742;28;20310;-56
2022/06/08 06:51:58;;;;;;;3.63;3.47;;;23.60;1.00;;;;;;6274393;28;20494;-56
2022/06/08 06:55:01;;;;;;;3.60;3.30;;;23.80;1.00;;;;;;6284346;28;20282;-54
2022/06/08 06:58:05;;;;;;;3.20;3.07;;;23.80;1.00;;;;;;6279749;28;20303;-56
2022/06/08 07:01:11;;;;;;;4.07;3.77;;;23.70;1.00;;;;;;6281840;28;20720;-54
2022/06/08 07:04:18;;;;;;;3.57;3.33;;;23.70;1.00;;;;;;6278351;28;20301;-56
2022/06/08 07:07:20;;;;;;;3.20;3.00;;;23.60;1.00;;;;;;6277587;28;20294;-55
2022/06/08 07:10:23;;;;;;;4.77;4.30;;;23.60;1.00;;;;;;6279379;28;20584;-56
2022/06/08 07:13:27;;;;;;;3.30;3.20;;;23.30;1.00;;;;;;6282605;28;20237;-54
2022/06/08 07:16:31;;;;;;;3.60;3.50;;;22.90;1.00;;;;;;6287239;28;20603;-55
2022/06/08 07:19:35;;;;;;;3.57;3.47;;;23.00;1.00;;;;;;6263616;28;20253;-55
2022/06/08 07:22:38;;;;;;;3.17;3.07;;;23.00;1.00;;;;;;6278559;28;20762;-55
2022/06/08 07:25:41;;;;;;;3.63;3.33;;;23.40;1.00;;;;;;6292316;28;20375;-55
2022/06/08 07:28:44;;;;;;;3.97;3.50;;;23.50;1.00;;;;;;6281342;28;20499;-55
2022/06/08 07:31:48;;;;;;;3.30;3.00;;;23.70;1.00;;;;;;6289674;28;20235;-56
2022/06/08 07:34:52;;;;;;;3.17;2.90;;;23.70;1.00;;;;;;6279080;28;20463;-56
2022/06/08 07:37:56;;;;;;;3.63;2.53;;;23.80;1.00;;;;;;6280644;28;20237;-55
2022/06/08 07:40:58;;;;;;;2.47;2.37;;;23.90;1.00;;;;;;6284728;28;20725;-55
2022/06/08 07:44:02;;;;;;;3.03;2.83;;;24.00;1.00;;;;;;6293392;28;20232;-54
2022/06/08 07:47:05;;;;;;;6.97;3.10;;;23.60;1.00;;;;;;6285374;28;20271;-56
2022/06/08 07:50:09;;;;;;;2.87;2.67;;;23.20;1.00;;;;;;6281814;28;20768;-55
2022/06/08 07:53:12;;;;;;;2.57;2.47;;;23.20;1.00;;;;;;6281179;28;20322;-55
2022/06/08 07:56:15;;;;;;;2.63;2.43;;;23.00;1.00;;;;;;6284657;28;20311;-56
2022/06/08 07:59:19;;;;;;;2.87;2.67;;;23.10;1.00;;;;;;6281951;28;20238;-55
2022/06/08 08:02:22;;;;;;;2.53;2.33;;;22.90;1.00;;;;;;6287863;28;20308;-54
2022/06/08 08:05:26;;;;;;;2.60;2.50;;;22.90;1.00;;;;;;6292721;28;20324;-54
2022/06/08 08:08:29;;;;;;;2.60;2.50;;;23.00;1.00;;;;;;6279388;28;20267;-55
2022/06/08 08:11:32;;;;;;;2.60;2.60;;;23.20;1.00;;;;;;6283295;28;20725;-56
2022/06/08 08:14:35;;;;;;;2.53;2.53;;;23.30;1.00;;;;;;6279914;28;20229;-55
2022/06/08 08:17:38;;;;;;;2.47;2.47;;;23.60;1.00;;;;;;6278960;28;20245;-56
2022/06/08 08:20:43;;;;;;;4.20;2.53;;;23.70;1.00;;;;;;6286352;28;20486;-56
2022/06/08 08:23:45;;;;;;;2.83;2.77;;;23.70;1.00;;;;;;6281596;28;20320;-55
2022/06/08 08:26:49;;;;;;;2.70;2.70;;;23.60;1.00;;;;;;6282865;28;20237;-56
2022/06/08 08:29:53;;;;;;;2.40;2.40;;;23.60;1.00;;;;;;6285894;28;20386;-55
2022/06/08 08:32:56;;;;;;;2.97;2.10;;;23.50;1.00;;;;;;6279737;28;20333;-55
2022/06/08 08:36:00;;;;;;;2.07;2.00;;;23.90;1.00;;;;;;6279000;28;20635;-55
2022/06/08 08:39:03;;;;;;;2.53;2.47;;;24.30;1.00;;;;;;6282236;28;20773;-54
2022/06/08 08:42:22;;;;;;;3.00;2.90;;;24.60;1.00;;;;;;6282638;28;20852;-54
2022/06/08 08:45:25;;;;;;;2.27;2.27;;;24.70;1.00;;;;;;6272629;28;20560;-55
2022/06/08 08:48:31;;;;;;;3.10;2.80;;;24.80;1.00;;;;;;6281173;28;20491;-54
2022/06/08 08:51:42;;;;;;;2.77;2.67;;;24.70;1.00;;;;;;6281031;28;20301;-55
2022/06/08 08:54:52;;;;;;;2.73;2.43;;;24.80;1.00;;;;;;6279369;28;20245;-54
2022/06/08 08:57:59;;;;;;;2.43;2.30;;;24.80;1.00;;;;;;6288179;28;20463;-54
2022/06/08 09:01:10;;;;;;;4.30;2.37;;;24.90;1.00;;;;;;6263305;28;20234;-56
2022/06/08 09:04:23;;;;;;;2.70;2.60;;;24.60;1.00;;;;;;6263975;28;20311;-56
2022/06/08 09:07:29;;;;;;;2.37;2.37;;;24.40;1.00;;;;;;6250948;28;20238;-55
2022/06/08 09:10:32;;;;;;;3.30;2.13;;;24.30;1.00;;;;;;6274698;28;20237;-55
2022/06/08 09:13:45;;;;;;;2.37;2.13;;;24.20;1.00;;;;;;6286575;28;20822;-54
2022/06/08 09:16:50;;;;;;;1.90;1.90;;;24.10;1.00;;;;;;6268393;28;20265;-54
2022/06/08 09:19:53;;;;;;;2.50;2.30;;;24.00;1.00;;;;;;6281541;28;20535;-54
2022/06/08 09:23:00;;;;;;;2.10;2.10;;;24.20;1.00;;;;;;6278743;28;20483;-54
2022/06/08 09:26:07;;;;;;;2.10;2.10;;;24.10;1.00;;;;;;6278419;28;20316;-56
2022/06/08 09:29:21;;;;;;;2.60;2.40;;;24.30;1.00;;;;;;6283947;28;20644;-57
2022/06/08 09:32:28;;;;;;;2.27;2.17;;;24.50;1.00;;;;;;6281741;28;20233;-55
2022/06/08 09:35:35;;;;;;;2.20;2.20;;;24.70;1.00;;;;;;6271210;28;20495;-55
2022/06/08 09:38:40;;;;;;;3.07;2.97;;;25.00;1.00;;;;;;6279513;28;20294;-55
2022/06/08 09:41:49;;;;;;;3.23;2.63;;;25.50;1.00;;;;;;6285517;28;20771;-55
2022/06/08 09:45:01;;;;;;;2.40;2.40;;;25.80;1.00;;;;;;6275954;28;20248;-54
2022/06/08 09:52:04;;;;;;;2.33;2.10;;;25.80;1.00;;;;;;6280786;28;20744;-55
2022/06/08 09:55:23;;;;;;;2.10;2.10;;;25.60;1.00;;;;;;6274473;28;20233;-56
2022/06/08 09:58:44;;;;;;;2.17;2.00;;;25.60;1.00;;;;;;6276409;28;20368;-56
2022/06/08 10:01:54;;;;;;;2.53;2.37;;;25.70;1.00;;;;;;6250254;28;20700;-56
2022/06/08 10:05:13;;;;;;;2.43;2.23;;;25.60;1.00;;;;;;6266934;28;20245;-55
2022/06/08 10:08:21;;;;;;;2.20;2.10;;;25.50;1.00;;;;;;6276040;28;20241;-57
2022/06/08 10:11:36;;;;;;;2.30;2.10;;;25.20;1.00;;;;;;6288637;28;20258;-56
2022/06/08 10:14:46;;;;;;;2.30;2.30;;;25.10;1.00;;;;;;6273840;28;20240;-54
2022/06/08 10:17:53;;;;;;;3.80;2.57;;;25.10;1.00;;;;;;6277756;28;20245;-56
2022/06/08 10:21:01;;;;;;;2.83;2.73;;;24.70;1.00;;;;;;6280539;28;20249;-56
2022/06/08 10:24:13;;;;;;;2.40;2.30;;;24.60;1.00;;;;;;6277581;28;20274;-58
2022/06/08 10:27:23;;;;;;;2.63;2.40;;;24.50;1.00;;;;;;6281020;28;20234;-55
2022/06/08 10:30:33;;;;;;;2.33;2.13;;;24.20;1.00;;;;;;6276000;28;20716;-54
2022/06/08 10:33:44;;;;;;;2.20;2.10;;;24.00;1.00;;;;;;6268603;28;20256;-57
2022/06/08 10:36:51;;;;;;;2.60;2.40;;;23.90;1.00;;;;;;6278182;28;20245;-55
2022/06/08 10:39:54;;;;;;;2.10;2.10;;;23.90;1.00;;;;;;6276683;28;20453;-55
2022/06/08 10:42:58;;;;;;;1.90;1.90;;;24.00;1.00;;;;;;6285613;28;20327;-55
2022/06/08 10:46:04;;;;;;;2.67;2.20;;;23.90;1.00;;;;;;6281146;28;20460;-55
2022/06/08 10:49:19;;;;;;;2.83;2.10;;;23.80;1.00;;;;;;6281086;28;20380;-54
2022/06/08 10:52:42;;;;;;;5.00;2.47;;;23.70;1.00;;;;;;6279623;28;20360;-56
2022/06/08 10:55:45;;;;;;;2.50;2.50;;;23.70;1.00;;;;;;6278655;28;20808;-55
2022/06/08 10:58:57;;;;;;;3.20;2.20;;;23.80;1.00;;;;;;6281806;28;20261;-56
2022/06/08 11:02:25;;;;;;;2.23;2.13;;;24.10;1.00;;;;;;6281358;28;20233;-56
2022/06/08 11:05:33;;;;;;;2.43;2.23;;;24.30;1.00;;;;;;6276752;28;20611;-56
2022/06/08 11:08:51;;;;;;;2.53;2.33;;;24.40;1.00;;;;;;6287165;28;20361;-56
2022/06/08 11:12:01;;;;;;;2.10;2.10;;;24.30;1.00;;;;;;6266145;28;20226;-55
2022/06/08 11:15:12;;;;;;;1.90;1.80;;;24.20;1.00;;;;;;6259470;28;20222;-54
2022/06/08 11:18:27;;;;;;;2.30;2.13;;;24.10;1.00;;;;;;6257711;28;20721;-55
2022/06/08 11:21:41;;;;;;;2.70;2.57;;;24.10;1.00;;;;;;6262843;28;20373;-50
2022/06/08 11:24:49;;;;;;;2.27;2.17;;;24.10;1.00;;;;;;6272788;28;20346;-55
2022/06/08 11:28:25;;;;;;;2.27;2.17;;;23.90;1.00;;;;;;6290745;28;20241;-54
2022/06/08 11:31:51;;;;;;;2.20;2.13;;;23.90;1.00;;;;;;6284477;28;20332;-56
2022/06/08 11:35:12;;;;;;;2.37;1.83;;;24.10;1.00;;;;;;6274209;28;20328;-56
2022/06/08 11:38:28;;;;;;;2.00;1.90;;;24.20;1.00;;;;;;6286025;28;20275;-55
2022/06/08 11:41:35;;;;;;;2.00;2.00;;;24.20;1.00;;;;;;6286590;28;20318;-55
2022/06/08 11:44:44;;;;;;;2.40;2.20;;;24.30;1.00;;;;;;6276919;28;20287;-55
2022/06/08 11:47:56;;;;;;;3.63;2.00;;;24.40;1.00;;;;;;6285254;28;20554;-55
2022/06/08 11:51:01;;;;;;;2.07;1.93;;;24.30;1.00;;;;;;6280038;28;20235;-56
2022/06/08 11:54:21;;;;;;;2.03;1.80;;;24.40;1.00;;;;;;6278897;28;20383;-56
2022/06/08 11:57:24;;;;;;;2.93;2.00;;;24.50;1.00;;;;;;6280066;28;20237;-55
2022/06/08 12:00:31;;;;;;;1.83;1.73;;;24.60;1.00;;;;;;6283808;28;20235;-52
2022/06/08 12:03:42;;;;;;;2.07;1.97;;;24.70;1.00;;;;;;6256209;28;20876;-54
2022/06/08 12:06:46;;;;;;;1.93;1.93;;;24.60;1.00;;;;;;6256362;28;20314;-55
2022/06/08 12:09:49;;;;;;;2.30;1.90;;;24.70;1.00;;;;;;6259457;28;20261;-56
2022/06/08 12:12:53;;;;;;;1.90;1.87;;;24.80;1.00;;;;;;6254194;28;20774;-54
2022/06/08 12:15:57;;;;;;;1.80;1.80;;;24.70;1.00;;;;;;6254964;28;20237;-54
2022/06/08 12:19:12;;;;;;;2.00;1.93;;;24.70;1.00;;;;;;6257023;28;20434;-54
2022/06/08 12:22:18;;;;;;;1.90;1.90;;;24.70;1.00;;;;;;6255239;28;20325;-54
2022/06/08 12:25:24;;;;;;;1.70;1.70;;;24.90;1.00;;;;;;6257647;28;20291;-54
2022/06/08 12:28:28;;;;;;;2.30;1.90;;;25.10;1.00;;;;;;6274122;28;20257;-54
2022/06/08 12:31:32;;;;;;;1.50;1.50;;;24.90;1.00;;;;;;6283424;28;20229;-55
2022/06/08 12:34:40;;;;;;;2.20;2.10;;;25.10;1.00;;;;;;6286124;28;20234;-54
2022/06/08 12:37:45;;;;;;;1.73;1.73;;;25.50;1.00;;;;;;6278684;28;20246;-54
2022/06/08 12:41:01;;;;;;;1.83;1.83;;;25.90;1.00;;;;;;6281175;28;20237;-55
2022/06/08 12:44:07;;;;;;;2.00;2.00;;;26.10;1.00;;;;;;6278946;28;20673;-54
2022/06/08 12:47:17;;;;;;;1.30;1.30;;;26.10;1.00;;;;;;6281566;28;20299;-55
2022/06/08 12:50:25;;;;;;;1.77;1.67;;;25.90;1.00;;;;;;6281218;28;20315;-54
2022/06/08 12:53:29;;;;;;;1.47;1.47;;;26.00;1.00;;;;;;6279534;28;20245;-54
2022/06/08 12:56:32;;;;;;;1.80;1.50;;;26.30;1.00;;;;;;6282012;28;20305;-55
2022/06/08 12:59:37;;;;;;;1.40;1.40;;;26.50;1.00;;;;;;6280550;28;20242;-54
2022/06/08 13:02:41;;;;;;;1.90;1.73;;;26.80;1.00;;;;;;6275167;28;20311;-53
2022/06/08 13:05:46;;;;;;;1.60;1.53;;;26.80;1.00;;;;;;6280994;28;20286;-54
2022/06/08 13:08:49;;;;;;;1.70;1.70;;;26.60;1.00;;;;;;6278924;28;20306;-54
2022/06/08 13:11:57;;;;;;;1.93;1.87;;;26.40;1.00;;;;;;6280756;28;20606;-54
2022/06/08 13:15:00;;;;;;;2.57;1.83;;;26.20;1.00;;;;;;6282190;28;20606;-54
2022/06/08 13:18:05;;;;;;;1.70;1.70;;;25.90;1.00;;;;;;6285976;28;20611;-55
2022/06/08 13:21:12;;;;;;;1.50;1.50;;;25.80;1.00;;;;;;6277455;28;20673;-56
2022/06/08 13:24:16;;;;;;;1.80;1.70;;;25.60;1.00;;;;;;6279684;28;20335;-55
2022/06/08 13:27:20;;;;;;;2.83;1.73;;;25.50;1.00;;;;;;6287944;28;20369;-54
2022/06/08 13:30:26;;;;;;;1.83;1.80;;;25.40;1.00;;;;;;6275649;28;20370;-54
2022/06/08 13:36:56;;;;;;;1.70;1.70;;;25.50;1.00;;;;;;6252929;28;20274;-54
2022/06/08 13:39:59;;;;;;;1.40;1.40;;;25.60;1.00;;;;;;6255265;28;20242;-55
2022/06/08 13:43:02;;;;;;;1.80;1.70;;;25.80;1.00;;;;;;6256078;28;20331;-54
2022/06/08 13:46:07;;;;;;;1.60;1.50;;;25.90;1.00;;;;;;6273198;28;20381;-54
2022/06/08 13:49:13;;;;;;;5.10;2.10;;;25.90;1.00;;;;;;6277868;28;20229;-54
2022/06/08 13:52:21;;;;;;;1.70;1.70;;;25.90;1.00;;;;;;6278004;28;20553;-55
2022/06/08 13:55:27;;;;;;;2.00;2.00;;;26.10;1.00;;;;;;6282356;28;20282;-54
2022/06/08 13:58:30;;;;;;;1.80;1.77;;;26.40;1.00;;;;;;6281016;28;20294;-54
2022/06/08 14:01:34;;;;;;;1.70;1.70;;;26.70;1.00;;;;;;6264852;28;20364;-55
2022/06/08 14:04:37;;;;;;;1.57;1.57;;;26.50;1.00;;;;;;6254929;28;20252;-55
2022/06/08 14:14:24;;;;;;;2.00;2.00;;;25.80;1.00;;;;;;6249501;28;20333;-55
2022/06/08 14:17:28;;;;;;;1.83;1.80;;;25.60;1.00;;;;;;6253148;28;20813;-55
2022/06/08 14:20:35;;;;;;;2.30;2.20;;;25.70;1.00;;;;;;6278644;28;20237;-54
2022/06/08 14:23:43;;;;;;;1.53;1.53;;;25.80;1.00;;;;;;6242952;28;20238;-54
2022/06/08 14:26:46;;;;;;;1.63;1.60;;;26.10;1.00;;;;;;6256081;28;20295;-55
2022/06/08 14:29:56;;;;;;;1.47;1.47;;;26.20;1.00;;;;;;6253948;28;20909;-54
2022/06/08 14:33:01;;;;;;;4.80;1.90;;;26.50;1.00;;;;;;6262488;28;20233;-56
2022/06/08 14:36:05;;;;;;;1.90;1.80;;;26.50;1.00;;;;;;6250617;28;20257;-54
2022/06/08 14:39:32;;;;;;;3.00;1.70;;;26.50;1.00;;;;;;6268468;28;20241;-54
2022/06/08 14:42:35;;;;;;;1.43;1.43;;;26.50;1.00;;;;;;6280386;28;20317;-54
2022/06/08 14:45:39;;;;;;;1.50;1.47;;;26.60;1.00;;;;;;6284440;28;20241;-56
2022/06/08 14:48:45;;;;;;;1.30;1.30;;;26.50;1.00;;;;;;6283944;28;20237;-55
2022/06/08 14:51:48;;;;;;;1.53;1.53;;;26.40;1.00;;;;;;6280546;28;20371;-55
2022/06/08 14:54:53;;;;;;;1.57;1.43;;;26.50;1.00;;;;;;6283788;28;20259;-55
2022/06/08 14:57:57;;;;;;;1.40;1.30;;;26.50;1.00;;;;;;6297217;28;20232;-53
2022/06/08 15:01:00;;;;;;;1.60;1.50;;;26.30;1.00;;;;;;6286578;28;20237;-56
2022/06/08 15:04:04;;;;;;;1.73;1.73;;;26.40;1.00;;;;;;6286257;28;20225;-55
2022/06/08 15:07:07;;;;;;;1.30;1.30;;;26.60;1.00;;;;;;6281983;28;20239;-54
2022/06/08 15:10:12;;;;;;;1.33;1.33;;;26.90;1.00;;;;;;6280685;28;20239;-54
2022/06/08 15:13:15;;;;;;;2.17;1.40;;;27.10;1.00;;;;;;6284111;28;20233;-56
2022/06/08 15:16:17;;;;;;;1.47;1.47;;;27.20;1.00;;;;;;6288980;28;20760;-55
2022/06/08 15:19:23;;;;;;;2.53;1.70;;;27.10;1.00;;;;;;6293220;28;20233;-55
2022/06/08 15:22:28;;;;;;;1.40;1.40;;;27.00;1.00;;;;;;6287153;28;20887;-54
2022/06/08 15:25:36;;;;;;;1.60;1.60;;;26.90;1.00;;;;;;6281342;28;20287;-54
2022/06/08 15:28:40;;;;;;;1.50;1.50;;;26.90;1.00;;;;;;6275966;28;20752;-55
2022/06/08 15:31:44;;;;;;;1.67;1.67;;;27.00;1.00;;;;;;6280869;28;20275;-54
2022/06/08 15:34:48;;;;;;;1.70;1.70;;;27.10;1.00;;;;;;6276780;28;20531;-54
2022/06/08 15:37:58;;;;;;;1.60;1.50;;;27.00;1.00;;;;;;6278234;28;20233;-54
2022/06/08 15:41:03;;;;;;;2.43;1.63;;;27.00;1.00;;;;;;6280728;28;20236;-55
2022/06/08 15:44:06;;;;;;;1.90;1.73;;;26.90;1.00;;;;;;6294105;28;20231;-54
2022/06/08 15:47:12;;;;;;;1.90;1.90;;;26.90;1.00;;;;;;6288398;28;20231;-53
2022/06/08 15:50:29;;;;;;;1.50;1.50;;;26.60;1.00;;;;;;6289248;28;20742;-53
2022/06/08 15:53:35;;;;;;;1.40;1.40;;;26.50;1.00;;;;;;6286541;28;20303;-57
2022/06/08 15:56:43;;;;;;;1.80;1.80;;;26.50;1.00;;;;;;6248513;28;20264;-55
2022/06/08 15:59:52;;;;;;;1.80;1.40;;;26.50;1.00;;;;;;6260657;28;20230;-54
2022/06/08 16:02:57;;;;;;;1.30;1.30;;;26.50;1.00;;;;;;6281190;28;20375;-55
2022/06/08 16:06:01;;;;;;;2.07;1.97;;;26.40;1.00;;;;;;6286126;28;20566;-54
2022/06/08 16:09:04;;;;;;;1.80;1.80;;;26.30;1.00;;;;;;6281217;28;20236;-55
2022/06/08 16:12:12;;;;;;;1.90;1.80;;;26.20;1.00;;;;;;6282986;28;20314;-55
2022/06/08 16:15:16;;;;;;;2.10;1.40;;;26.00;1.00;;;;;;6281513;28;20324;-54
2022/06/08 16:18:19;;;;;;;3.30;3.20;;;25.90;1.00;;;;;;6286143;28;20320;-55
2022/06/08 16:21:23;;;;;;;1.97;1.83;;;25.70;1.00;;;;;;6280205;28;20251;-54
2022/06/08 16:24:26;;;;;;;1.60;1.60;;;25.60;1.00;;;;;;6291834;28;20681;-55
2022/06/08 16:27:31;;;;;;;1.80;1.80;;;25.60;1.00;;;;;;6281942;28;20305;-56
2022/06/08 16:30:35;;;;;;;1.77;1.70;;;25.70;1.00;;;;;;6266225;28;20237;-54
2022/06/08 16:33:38;;;;;;;2.60;2.40;;;25.60;1.00;;;;;;6281974;28;20241;-54
2022/06/08 16:36:41;;;;;;;2.00;2.00;;;25.60;1.00;;;;;;6279045;28;20251;-55
2022/06/08 16:39:44;;;;;;;2.27;2.17;;;25.60;1.00;;;;;;6275928;28;20289;-54
2022/06/08 16:42:49;;;;;;;2.00;1.90;;;25.60;1.00;;;;;;6293697;28;20742;-54
2022/06/08 16:45:57;;;;;;;2.20;2.00;;;25.60;1.00;;;;;;6285945;28;20729;-54